createdAt,value
2017-07-17T06:16:07.747Z,335
2017-07-17T06:17:09.461Z,375
2017-07-17T06:18:11.122Z,425
2017-07-17T06:19:13.883Z,480
2017-07-17T06:20:15.551Z,515
2017-07-17T06:21:17.221Z,515
2017-07-17T06:22:18.882Z,525
2017-07-17T06:23:20.566Z,570
2017-07-17T06:24:22.229Z,645
2017-07-17T06:25:23.917Z,720
2017-07-17T06:26:25.587Z,775
2017-07-17T06:27:27.256Z,815
2017-07-17T06:28:28.930Z,855
2017-07-17T06:29:30.595Z,885
2017-07-17T06:30:32.263Z,885
2017-07-17T06:31:33.950Z,875
2017-07-17T06:32:35.614Z,900
2017-07-17T06:33:37.298Z,945
2017-07-17T06:34:38.975Z,985
2017-07-17T06:35:40.643Z,910
2017-07-17T06:36:42.319Z,885
2017-07-17T06:37:43.991Z,835
2017-07-17T06:38:45.662Z,715
2017-07-17T06:39:47.354Z,545
2017-07-17T06:40:49.035Z,470
2017-07-17T06:41:50.718Z,470
2017-07-17T06:42:52.391Z,540
2017-07-17T06:43:54.059Z,630
2017-07-17T06:44:55.754Z,695
2017-07-17T06:45:57.430Z,725
2017-07-17T06:46:59.119Z,690
2017-07-17T06:48:00.796Z,630
2017-07-17T06:49:02.469Z,550
2017-07-17T06:50:04.162Z,490
2017-07-17T06:51:05.836Z,500
2017-07-17T06:52:07.505Z,520
2017-07-17T06:53:09.185Z,470
2017-07-17T06:54:10.856Z,390
2017-07-17T06:55:12.529Z,385
2017-07-17T06:56:14.209Z,425
2017-07-17T06:57:15.881Z,460
2017-07-17T06:58:17.585Z,465
2017-07-17T06:59:19.248Z,440
2017-07-17T07:00:20.930Z,390
2017-07-17T07:01:22.610Z,355
2017-07-17T07:02:24.276Z,370
2017-07-17T07:03:25.948Z,390
2017-07-17T07:04:27.625Z,355
2017-07-17T07:05:29.429Z,280
2017-07-17T07:06:31.108Z,230
2017-07-17T07:07:32.783Z,235
2017-07-17T07:08:34.459Z,260
2017-07-17T07:09:36.142Z,255
2017-07-17T07:10:37.814Z,225
2017-07-17T07:11:39.484Z,210
2017-07-17T07:12:41.151Z,215
2017-07-17T07:13:42.828Z,220
2017-07-17T07:14:44.707Z,220
2017-07-17T07:15:46.395Z,215
2017-07-17T07:16:48.082Z,200
2017-07-17T07:17:49.745Z,205
2017-07-17T07:18:51.413Z,280
2017-07-17T07:19:53.094Z,380
2017-07-17T07:20:54.768Z,395
2017-07-17T07:21:56.435Z,325
2017-07-17T07:22:58.113Z,255
2017-07-17T07:23:59.787Z,235
2017-07-17T07:25:01.452Z,270
2017-07-17T07:26:03.120Z,360
2017-07-17T07:27:04.793Z,480
2017-07-17T07:28:06.522Z,570
2017-07-17T07:29:08.197Z,655
2017-07-17T07:30:09.866Z,690
2017-07-17T07:31:11.532Z,660
2017-07-17T07:32:13.211Z,665
2017-07-17T07:33:14.871Z,695
2017-07-17T07:34:16.548Z,730
2017-07-17T07:35:18.219Z,755
2017-07-17T07:36:19.890Z,750
2017-07-17T07:37:21.560Z,715
2017-07-17T07:38:23.234Z,695
2017-07-17T07:39:25.409Z,675
2017-07-17T07:40:28.843Z,650
2017-07-17T07:41:31.066Z,630
2017-07-17T07:42:33.307Z,620
2017-07-17T07:43:36.287Z,625
2017-07-17T07:44:37.957Z,640
2017-07-17T07:45:39.632Z,655
2017-07-17T07:46:41.313Z,680
2017-07-17T07:47:42.993Z,680
2017-07-17T07:48:44.645Z,640
2017-07-17T07:49:53.088Z,600
2017-07-17T07:50:54.773Z,565
2017-07-17T07:51:56.510Z,585
2017-07-17T07:52:58.175Z,670
2017-07-17T07:53:59.838Z,805
2017-07-17T07:55:01.512Z,910
2017-07-17T07:56:03.203Z,940
2017-07-17T07:57:04.884Z,855
2017-07-17T07:58:06.555Z,770
2017-07-17T07:59:08.252Z,685
2017-07-17T08:00:09.928Z,635
2017-07-17T08:01:11.598Z,635
2017-07-17T08:02:13.271Z,660
2017-07-17T08:03:14.948Z,765
2017-07-17T08:04:16.614Z,895
2017-07-17T08:05:18.289Z,1050
2017-07-17T08:06:19.961Z,1240
2017-07-17T08:07:21.635Z,1405
2017-07-17T08:08:23.300Z,1595
2017-07-17T08:09:24.981Z,1590
2017-07-17T08:10:26.655Z,2820
2017-07-17T08:11:28.332Z,1450
2017-07-17T08:12:30.033Z,1315
2017-07-17T08:13:31.707Z,1160
2017-07-17T08:14:33.381Z,1040
2017-07-17T08:15:35.211Z,885
2017-07-17T08:16:37.017Z,780
2017-07-17T08:17:38.670Z,720
2017-07-17T08:18:40.354Z,690
2017-07-17T08:19:42.024Z,655
2017-07-17T08:20:43.687Z,645
2017-07-17T08:21:45.439Z,665
2017-07-17T08:22:47.115Z,715
2017-07-17T08:23:48.786Z,765
2017-07-17T08:24:50.458Z,785
2017-07-17T08:25:52.126Z,800
2017-07-17T08:26:53.793Z,815
2017-07-17T08:27:55.469Z,850
2017-07-17T08:28:57.141Z,885
2017-07-17T08:29:58.806Z,905
2017-07-17T08:31:00.475Z,905
2017-07-17T08:32:02.149Z,905
2017-07-17T08:33:03.817Z,925
2017-07-17T08:34:05.492Z,950
2017-07-17T08:35:07.170Z,985
2017-07-17T08:36:08.846Z,1050
2017-07-17T08:37:10.527Z,1075
2017-07-17T08:38:12.202Z,1125
2017-07-17T08:39:13.869Z,1160
2017-07-17T08:40:15.541Z,1210
2017-07-17T08:41:17.210Z,1290
2017-07-17T08:42:18.884Z,1320
2017-07-17T08:43:20.600Z,1315
2017-07-17T08:44:22.265Z,1280
2017-07-17T08:45:23.943Z,1215
2017-07-17T08:46:25.612Z,1200
2017-07-17T08:47:27.287Z,1235
2017-07-17T08:48:29.093Z,1260
2017-07-17T08:49:30.737Z,1300
2017-07-17T08:50:32.439Z,1340
2017-07-17T08:51:34.824Z,1405
2017-07-17T08:52:36.499Z,1400
2017-07-17T08:53:38.174Z,1500
2017-07-17T08:54:40.041Z,1570
2017-07-17T08:55:42.815Z,1605
2017-07-17T08:56:44.459Z,1710
2017-07-17T08:57:46.133Z,1550
2017-07-17T08:58:47.809Z,1540
2017-07-17T08:59:49.908Z,1480
2017-07-17T09:00:51.596Z,1530
2017-07-17T09:01:53.343Z,1575
2017-07-17T09:02:55.028Z,1495
2017-07-17T09:03:56.687Z,1175
2017-07-17T09:04:58.375Z,1080
2017-07-17T09:06:00.066Z,935
2017-07-17T09:07:01.745Z,795
2017-07-17T09:08:03.416Z,695
2017-07-17T09:09:05.088Z,645
2017-07-17T09:10:06.770Z,625
2017-07-17T09:11:08.447Z,680
2017-07-17T09:12:10.120Z,755
2017-07-17T09:13:11.788Z,770
2017-07-17T09:14:13.470Z,670
2017-07-17T09:15:15.148Z,620
2017-07-17T09:16:16.817Z,590
2017-07-17T09:17:18.483Z,540
2017-07-17T09:18:20.192Z,530
2017-07-17T09:19:21.865Z,535
2017-07-17T09:20:23.535Z,505
2017-07-17T09:21:25.212Z,435
2017-07-17T09:22:26.889Z,375
2017-07-17T09:23:28.560Z,330
2017-07-17T09:24:30.226Z,300
2017-07-17T09:25:31.904Z,275
2017-07-17T09:26:33.590Z,260
2017-07-17T09:27:35.257Z,265
2017-07-17T09:28:36.918Z,290
2017-07-17T09:29:38.593Z,315
2017-07-17T09:30:40.259Z,345
2017-07-17T09:31:41.938Z,365
2017-07-17T09:32:43.606Z,375
2017-07-17T09:33:45.275Z,360
2017-07-17T09:34:46.934Z,350
2017-07-17T09:35:48.621Z,340
2017-07-17T09:36:50.301Z,325
2017-07-17T09:37:51.972Z,320
2017-07-17T09:38:53.641Z,305
2017-07-17T09:39:55.375Z,300
2017-07-17T09:40:57.053Z,300
2017-07-17T09:41:58.707Z,305
2017-07-17T09:43:00.379Z,325
2017-07-17T09:44:02.054Z,345
2017-07-17T09:45:03.730Z,370
2017-07-17T09:46:05.430Z,395
2017-07-17T09:47:07.098Z,415
2017-07-17T09:48:08.775Z,430
2017-07-17T09:49:10.457Z,445
2017-07-17T09:50:12.129Z,460
2017-07-17T09:51:13.812Z,475
2017-07-17T09:52:15.478Z,500
2017-07-17T09:53:17.156Z,520
2017-07-17T09:54:18.836Z,535
2017-07-17T09:55:20.558Z,535
2017-07-17T09:56:22.221Z,525
2017-07-17T09:57:23.889Z,520
2017-07-17T09:58:25.571Z,520
2017-07-17T09:59:27.274Z,520
2017-07-17T10:00:28.970Z,520
2017-07-17T10:01:30.616Z,535
2017-07-17T10:02:32.289Z,550
2017-07-17T10:03:33.959Z,565
2017-07-17T10:04:35.634Z,565
2017-07-17T10:05:37.363Z,560
2017-07-17T10:06:39.037Z,550
2017-07-17T10:07:40.711Z,530
2017-07-17T10:08:42.453Z,525
2017-07-17T10:09:44.120Z,535
2017-07-17T10:10:45.842Z,565
2017-07-17T10:11:47.561Z,600
2017-07-17T10:12:49.296Z,635
2017-07-17T10:13:51.101Z,660
2017-07-17T10:14:53.046Z,675
2017-07-17T10:15:54.775Z,685
2017-07-17T10:16:56.448Z,710
2017-07-17T10:17:58.116Z,725
2017-07-17T10:18:59.778Z,745
2017-07-17T10:20:01.444Z,775
2017-07-17T10:21:03.126Z,810
2017-07-17T10:22:04.797Z,850
2017-07-17T10:23:06.470Z,880
2017-07-17T10:24:08.151Z,905
2017-07-17T10:25:09.824Z,940
2017-07-17T10:26:11.490Z,990
2017-07-17T10:27:13.160Z,1005
2017-07-17T10:28:14.847Z,995
2017-07-17T10:29:16.565Z,985
2017-07-17T10:30:18.316Z,995
2017-07-17T10:31:19.987Z,1010
2017-07-17T10:32:21.731Z,1035
2017-07-17T10:33:23.408Z,1070
2017-07-17T10:34:25.144Z,1115
2017-07-17T10:35:26.834Z,1170
2017-07-17T10:36:28.584Z,1210
2017-07-17T10:37:30.290Z,1220
2017-07-17T10:38:31.959Z,1220
2017-07-17T10:39:33.633Z,1215
2017-07-17T10:40:35.366Z,1200
2017-07-17T10:41:37.035Z,1185
2017-07-17T10:42:38.718Z,1155
2017-07-17T10:43:40.427Z,1120
2017-07-17T10:44:42.112Z,1090
2017-07-17T10:45:43.796Z,1035
2017-07-17T10:46:45.474Z,1005
2017-07-17T10:47:47.145Z,1005
2017-07-17T10:48:48.826Z,1020
2017-07-17T10:49:50.494Z,1055
2017-07-17T10:50:52.171Z,1105
2017-07-17T10:51:53.848Z,1170
2017-07-17T10:52:55.533Z,1180
2017-07-17T10:53:57.201Z,1150
2017-07-17T10:54:58.887Z,1130
2017-07-17T10:56:00.566Z,1100
2017-07-17T10:57:02.238Z,1045
2017-07-17T10:58:03.909Z,1020
2017-07-17T10:59:05.580Z,1060
2017-07-17T11:00:07.252Z,1110
2017-07-17T11:01:08.918Z,1170
2017-07-17T11:02:10.589Z,1200
2017-07-17T11:03:12.267Z,1215
2017-07-17T11:04:13.936Z,1160
2017-07-17T11:05:15.631Z,1140
2017-07-17T11:06:17.310Z,1155
2017-07-17T11:07:18.994Z,1175
2017-07-17T11:08:20.660Z,1160
2017-07-17T11:09:22.341Z,1095
2017-07-17T11:10:24.009Z,1025
2017-07-17T11:11:25.682Z,940
2017-07-17T11:12:27.364Z,830
2017-07-17T11:13:29.066Z,765
2017-07-17T11:14:30.737Z,760
2017-07-17T11:15:32.407Z,805
2017-07-17T11:16:34.074Z,910
2017-07-17T11:17:35.755Z,1030
2017-07-17T11:18:37.436Z,1130
2017-07-17T11:19:39.110Z,1190
2017-07-17T11:20:40.786Z,1265
2017-07-17T11:21:42.467Z,1335
2017-07-17T11:22:44.143Z,1410
2017-07-17T11:23:45.822Z,1450
2017-07-17T11:24:47.494Z,1440
2017-07-17T11:25:49.175Z,1435
2017-07-17T11:26:50.956Z,1465
2017-07-17T11:27:52.627Z,1480
2017-07-17T11:28:54.306Z,1520
2017-07-17T11:29:55.980Z,1310
2017-07-17T11:30:57.659Z,1265
2017-07-17T11:31:59.333Z,1265
2017-07-17T11:33:01.009Z,1380
2017-07-17T11:34:02.698Z,1260
2017-07-17T11:35:04.368Z,950
2017-07-17T11:36:06.048Z,715
2017-07-17T11:37:07.726Z,590
2017-07-17T11:38:09.409Z,510
2017-07-17T11:39:11.078Z,470
2017-07-17T11:40:12.758Z,425
2017-07-17T11:41:14.437Z,390
2017-07-17T11:42:16.113Z,375
2017-07-17T11:43:17.922Z,375
2017-07-17T11:44:19.596Z,380
2017-07-17T11:45:21.311Z,385
2017-07-17T18:16:04.723Z,200
2017-07-17T18:17:06.391Z,190
2017-07-17T18:18:08.082Z,175
2017-07-17T18:19:09.739Z,160
2017-07-17T18:20:11.436Z,150
2017-07-17T18:21:13.109Z,145
2017-07-17T18:22:14.801Z,140
2017-07-17T18:23:16.476Z,140
2017-07-17T18:24:18.167Z,140
2017-07-17T18:25:19.848Z,145
2017-07-17T18:26:21.513Z,140
2017-07-17T18:27:23.189Z,135
2017-07-17T18:28:24.862Z,130
2017-07-17T18:29:26.528Z,130
2017-07-17T18:30:28.205Z,130
2017-07-17T18:31:29.898Z,130
2017-07-17T18:32:31.579Z,135
2017-07-17T18:33:33.248Z,130
2017-07-17T18:34:34.918Z,130
2017-07-17T18:35:36.593Z,130
2017-07-17T18:36:38.263Z,125
2017-07-17T18:37:39.938Z,120
2017-07-17T18:38:41.605Z,115
2017-07-17T18:39:43.273Z,115
2017-07-17T18:40:44.964Z,110
2017-07-17T18:41:46.639Z,105
2017-07-17T18:42:48.303Z,105
2017-07-17T18:43:51.054Z,105
2017-07-17T18:44:52.736Z,105
2017-07-17T18:45:54.420Z,100
2017-07-17T18:46:56.095Z,100
2017-07-17T18:47:57.774Z,100
2017-07-17T18:48:59.639Z,95
2017-07-17T18:50:03.147Z,95
2017-07-17T18:51:04.819Z,95
2017-07-17T18:52:07.390Z,90
2017-07-17T18:53:09.044Z,90
2017-07-17T18:54:10.711Z,90
2017-07-17T18:55:12.449Z,85
2017-07-17T18:56:14.300Z,85
2017-07-17T18:57:15.994Z,85
2017-07-17T18:58:17.677Z,80
2017-07-17T18:59:19.392Z,80
2017-07-17T19:00:21.116Z,75
2017-07-17T19:01:22.793Z,75
2017-07-17T19:02:24.437Z,75
2017-07-17T19:03:26.119Z,70
2017-07-17T19:04:28.354Z,70
2017-07-17T19:05:30.206Z,65
2017-07-17T19:06:32.007Z,65
2017-07-17T19:07:33.687Z,65
2017-07-17T19:08:35.409Z,60
2017-07-17T19:09:37.898Z,60
2017-07-17T19:10:40.328Z,55
2017-07-17T19:11:42.003Z,55
2017-07-17T19:12:43.705Z,50
2017-07-17T19:13:45.416Z,50
2017-07-17T19:14:47.095Z,45
2017-07-17T19:15:48.791Z,40
2017-07-17T19:16:50.487Z,40
2017-07-17T19:17:52.145Z,35
2017-07-17T19:18:53.810Z,35
2017-07-17T19:19:55.478Z,30
2017-07-17T19:20:57.545Z,30
2017-07-17T19:21:59.214Z,25
2017-07-17T19:23:01.017Z,25
2017-07-17T19:24:02.537Z,25
2017-07-17T19:25:04.194Z,25
2017-07-17T19:26:05.861Z,20
2017-07-17T19:27:07.531Z,20
2017-07-17T19:28:09.197Z,20
2017-07-17T19:29:10.866Z,15
2017-07-17T19:30:12.935Z,15
2017-07-17T19:31:14.601Z,15
2017-07-17T19:32:16.277Z,15
2017-07-17T19:33:19.468Z,10
2017-07-17T19:34:21.132Z,10
2017-07-17T19:35:22.812Z,10
2017-07-17T19:36:24.474Z,10
2017-07-17T19:37:26.137Z,5
2017-07-17T19:38:27.798Z,5
2017-07-17T19:39:29.493Z,5
2017-07-17T19:40:31.163Z,5
2017-07-17T19:41:32.814Z,5
2017-07-17T19:42:35.599Z,5
2017-07-17T19:43:37.723Z,5
2017-07-17T19:44:40.384Z,5
2017-07-17T19:45:42.011Z,0
2017-07-17T19:46:44.658Z,0
2017-07-17T19:47:46.337Z,0
2017-07-17T19:48:48.010Z,0
2017-07-17T19:49:49.742Z,0
2017-07-17T19:50:51.480Z,0
2017-07-17T19:51:53.141Z,0
2017-07-17T19:52:54.809Z,0
2017-07-17T19:53:56.494Z,0
2017-07-17T19:54:58.211Z,0
2017-07-17T19:55:59.877Z,0
2017-07-17T19:57:01.550Z,0
2017-07-17T19:58:03.220Z,0
2017-07-17T19:59:04.886Z,0
2017-07-17T20:00:06.557Z,0
2017-07-17T20:01:08.253Z,0
2017-07-17T20:02:09.932Z,0
2017-07-17T20:03:11.598Z,0
2017-07-17T20:04:13.274Z,0
2017-07-17T20:05:14.931Z,0
2017-07-17T20:06:16.603Z,0
2017-07-17T20:07:18.268Z,0
2017-07-17T20:08:19.934Z,0
2017-07-17T20:09:21.602Z,0
2017-07-17T20:10:23.263Z,0
2017-07-17T20:11:24.935Z,0
2017-07-17T20:12:26.606Z,0
2017-07-17T20:13:28.268Z,0
2017-07-17T20:14:29.942Z,0
2017-07-17T20:15:31.606Z,0
2017-07-17T20:16:33.276Z,0
2017-07-17T20:17:34.943Z,0
2017-07-17T20:18:36.661Z,0
2017-07-17T20:19:38.323Z,0
2017-07-17T20:20:39.999Z,0
2017-07-17T20:21:41.657Z,0
2017-07-17T20:22:43.328Z,0
2017-07-17T20:23:45.007Z,0
2017-07-17T20:24:46.686Z,0
2017-07-17T20:25:48.357Z,0
2017-07-17T20:26:50.032Z,0
2017-07-17T20:27:51.703Z,0
2017-07-17T20:28:53.358Z,0
2017-07-17T20:29:55.061Z,0
2017-07-17T20:30:56.745Z,0
2017-07-17T20:31:58.446Z,0
2017-07-17T20:33:00.112Z,0
2017-07-17T20:34:01.776Z,0
2017-07-17T20:35:03.432Z,0
2017-07-17T20:36:05.091Z,0
2017-07-17T20:37:06.754Z,0
2017-07-17T20:38:08.435Z,0
2017-07-17T20:39:10.091Z,0
2017-07-17T20:40:11.749Z,0
2017-07-17T20:41:13.465Z,0
2017-07-17T20:42:15.168Z,0
2017-07-17T20:43:16.842Z,0
2017-07-17T20:44:18.518Z,0
2017-07-17T20:45:20.179Z,0
2017-07-17T20:46:21.891Z,0
2017-07-17T20:47:23.559Z,0
2017-07-17T20:48:25.219Z,0
2017-07-17T20:49:26.884Z,0
2017-07-17T20:50:28.544Z,0
2017-07-17T20:51:30.201Z,0
2017-07-17T20:52:31.877Z,0
2017-07-17T20:53:33.556Z,0
2017-07-17T20:54:35.221Z,0
2017-07-17T20:55:36.896Z,0
2017-07-17T20:56:38.568Z,0
2017-07-17T20:57:40.236Z,0
2017-07-17T20:58:41.899Z,0
2017-07-17T20:59:43.570Z,0
2017-07-17T21:00:45.249Z,0
2017-07-17T21:01:46.918Z,0
2017-07-17T21:02:48.640Z,0
2017-07-17T21:03:50.299Z,0
2017-07-17T21:04:51.969Z,0
2017-07-17T21:05:53.633Z,0
2017-07-17T21:06:55.296Z,0
2017-07-17T21:07:57.196Z,0
2017-07-17T21:08:58.856Z,0
2017-07-17T21:10:00.525Z,0
2017-07-17T21:11:02.189Z,0
2017-07-17T21:12:03.941Z,0
2017-07-17T21:13:05.604Z,0
2017-07-17T21:14:07.276Z,0
2017-07-17T21:15:08.944Z,0
2017-07-17T21:16:10.613Z,0
2017-07-17T21:17:12.273Z,0
2017-07-17T21:18:13.952Z,0
2017-07-17T21:19:15.624Z,0
2017-07-17T21:20:17.808Z,0
2017-07-17T21:21:19.489Z,0
2017-07-17T21:22:21.157Z,0
2017-07-17T21:23:22.836Z,0
2017-07-17T21:24:28.112Z,0
2017-07-17T21:25:29.747Z,0
2017-07-17T21:26:31.434Z,0
2017-07-17T21:27:33.093Z,0
2017-07-17T21:28:34.770Z,0
2017-07-17T21:29:36.431Z,0
2017-07-17T21:30:38.094Z,0
2017-07-17T21:31:39.758Z,0
2017-07-17T21:32:41.422Z,0
2017-07-17T21:33:43.093Z,0
2017-07-17T21:34:44.754Z,0
2017-07-17T21:35:46.413Z,0
2017-07-17T21:36:48.069Z,0
2017-07-17T21:37:49.735Z,0
2017-07-17T21:38:51.392Z,0
2017-07-17T21:39:53.079Z,0
2017-07-17T21:40:54.713Z,0
2017-07-17T21:41:56.391Z,0
2017-07-17T21:42:58.064Z,0
2017-07-17T21:43:59.814Z,0
2017-07-17T21:45:10.860Z,0
